Time;durP1;ratioP1;P1;durP2;ratioP2;P2;SDS_P1;SDS_P2;PMS_P1;PMS_P2;Temp;Humidity;BMP_temperature;BMP_pressure;BME280_temperature;BME280_humidity;BME280_pressure;Samples;Min_cycle;Max_cycle;Signal;HPM_P1;HPM_P2
2021/01/26 00:01:22;;;;;;;25.10;15.73;;;;;;;1.01;79.84;98655.22;4974341;28;20299;-85
2021/01/26 00:03:48;;;;;;;23.08;14.55;;;;;;;1.16;79.60;98654.66;4954643;28;20290;-84
2021/01/26 00:06:14;;;;;;;24.63;16.40;;;;;;;1.17;79.11;98656.38;4958791;28;20291;-86
2021/01/26 00:08:42;;;;;;;27.20;14.60;;;;;;;1.15;79.63;98658.25;4970755;28;20247;-80
2021/01/26 00:11:08;;;;;;;26.75;14.63;;;;;;;1.23;79.77;98664.13;4945139;28;20213;-81
2021/01/26 00:13:34;;;;;;;25.80;15.70;;;;;;;1.24;79.21;98663.19;4954584;28;20711;-80
2021/01/26 00:16:01;;;;;;;26.30;15.23;;;;;;;1.24;79.07;98665.84;4930061;28;20232;-81
2021/01/26 00:18:28;;;;;;;28.13;16.95;;;;;;;1.13;79.68;98660.09;4935883;28;20240;-80
2021/01/26 00:20:55;;;;;;;26.23;15.13;;;;;;;1.17;79.56;98659.03;4924859;29;20227;-77
2021/01/26 00:23:22;;;;;;;30.38;15.60;;;;;;;1.14;79.92;98659.16;4951267;28;20199;-78
2021/01/26 00:25:48;;;;;;;32.97;18.38;;;;;;;1.11;80.36;98650.47;4954141;28;20219;-78
2021/01/26 00:28:16;;;;;;;27.63;15.75;;;;;;;1.05;80.36;98656.81;4957712;28;20215;-78
2021/01/26 00:30:45;;;;;;;25.35;15.20;;;;;;;0.99;80.26;98657.06;4955978;28;20238;-78
2021/01/26 00:33:14;;;;;;;27.70;15.48;;;;;;;0.88;80.71;98653.91;4948755;28;20279;-78
2021/01/26 00:35:44;;;;;;;27.30;15.50;;;;;;;0.89;80.62;98655.66;4939430;28;20244;-78
2021/01/26 00:38:11;;;;;;;22.35;14.82;;;;;;;0.91;80.53;98659.09;4967271;28;20380;-78
2021/01/26 00:40:38;;;;;;;27.15;15.73;;;;;;;0.83;80.63;98661.16;4958184;28;20293;-78
2021/01/26 00:43:05;;;;;;;27.48;17.05;;;;;;;0.83;81.19;98653.22;4972814;28;20226;-77
2021/01/26 00:45:32;;;;;;;28.80;15.55;;;;;;;0.89;80.78;98653.00;4948254;28;20223;-77
2021/01/26 00:47:58;;;;;;;29.58;16.20;;;;;;;0.90;80.95;98645.94;4958963;28;20289;-78
2021/01/26 00:50:27;;;;;;;25.63;16.02;;;;;;;0.87;80.81;98638.09;4943366;28;20329;-78
2021/01/26 00:52:55;;;;;;;29.02;16.48;;;;;;;0.87;80.70;98636.31;4960671;28;20196;-78
2021/01/26 00:55:30;;;;;;;29.38;15.80;;;;;;;0.93;80.55;98645.81;4955243;28;20236;-78
2021/01/26 00:57:56;;;;;;;27.05;17.63;;;;;;;1.02;80.20;98643.72;4958417;28;20287;-78
2021/01/26 01:00:27;;;;;;;29.95;16.95;;;;;;;0.99;80.30;98649.13;4954718;28;20729;-78
2021/01/26 01:02:59;;;;;;;28.52;16.17;;;;;;;1.04;80.22;98649.81;4931134;28;20223;-80
2021/01/26 01:05:26;;;;;;;29.20;14.50;;;;;;;1.02;80.32;98645.47;4959297;28;20230;-79
2021/01/26 01:07:53;;;;;;;29.95;17.08;;;;;;;1.04;80.43;98639.22;4926646;29;20204;-78
2021/01/26 01:10:31;;;;;;;31.35;17.33;;;;;;;1.13;80.51;98644.19;4937551;29;20253;-78
2021/01/26 01:12:59;;;;;;;33.10;17.73;;;;;;;1.01;80.26;98647.28;4937678;29;20226;-78
2021/01/26 01:15:26;;;;;;;27.35;16.98;;;;;;;1.01;80.29;98643.75;4931463;29;20677;-78
2021/01/26 01:17:52;;;;;;;34.65;17.48;;;;;;;0.94;80.30;98648.41;4938920;28;20232;-79
2021/01/26 01:20:22;;;;;;;29.10;16.70;;;;;;;1.06;80.38;98653.28;4942996;29;20289;-79
2021/01/26 01:22:48;;;;;;;25.27;16.10;;;;;;;1.07;80.49;98660.31;4953752;28;20304;-79
2021/01/26 01:25:15;;;;;;;26.67;16.25;;;;;;;1.22;80.12;98665.03;4941917;28;20228;-79
2021/01/26 01:27:41;;;;;;;29.48;17.23;;;;;;;1.17;80.51;98666.13;4952946;29;20595;-78
2021/01/26 01:30:10;;;;;;;31.25;14.85;;;;;;;1.12;80.12;98666.31;4970904;28;20236;-78
2021/01/26 01:32:37;;;;;;;28.92;16.08;;;;;;;1.15;80.38;98660.00;4970982;28;20683;-78
2021/01/26 01:35:08;;;;;;;32.05;18.05;;;;;;;1.11;80.66;98659.25;4959614;28;20259;-77
2021/01/26 01:37:35;;;;;;;23.25;12.80;;;;;;;1.10;80.49;98651.38;4957896;28;20223;-81
2021/01/26 01:40:01;;;;;;;33.10;18.67;;;;;;;1.22;81.09;98653.59;4925702;29;20314;-77
2021/01/26 01:42:27;;;;;;;34.97;17.40;;;;;;;1.21;80.73;98663.31;4923587;29;20236;-78
2021/01/26 01:44:54;;;;;;;26.85;15.93;;;;;;;1.30;80.46;98655.03;4971186;28;20235;-78
2021/01/26 01:47:43;;;;;;;25.17;14.82;;;;;;;1.30;80.25;98655.03;4943067;28;20673;-77
2021/01/26 01:50:17;;;;;;;28.92;16.58;;;;;;;1.35;80.23;98658.38;4957251;28;20231;-77
2021/01/26 01:52:44;;;;;;;26.85;15.10;;;;;;;1.33;80.36;98657.59;4957880;28;20289;-78
2021/01/26 01:55:20;;;;;;;31.63;16.88;;;;;;;1.30;80.53;98641.78;4957855;28;20239;-77
2021/01/26 01:58:20;;;;;;;29.23;15.52;;;;;;;1.33;80.53;98643.47;4935462;28;20215;-78
2021/01/26 02:00:56;;;;;;;23.38;13.02;;;;;;;1.28;80.36;98648.09;4912560;29;20235;-78
2021/01/26 02:03:27;;;;;;;22.10;12.57;;;;;;;1.29;80.72;98645.34;4905504;29;20224;-77
2021/01/26 02:05:56;;;;;;;21.95;12.68;;;;;;;1.31;80.66;98659.44;4949633;28;20232;-78
2021/01/26 02:08:33;;;;;;;23.52;13.63;;;;;;;1.34;80.92;98664.59;4948514;28;20210;-77
2021/01/26 02:10:59;;;;;;;28.08;15.48;;;;;;;1.43;80.61;98663.41;4964420;28;20205;-76
2021/01/26 02:13:25;;;;;;;27.95;15.10;;;;;;;1.44;80.57;98666.00;4976187;28;20227;-77
2021/01/26 02:15:57;;;;;;;28.38;16.10;;;;;;;1.39;81.05;98665.31;4958698;29;20340;-76
2021/01/26 02:18:59;;;;;;;28.15;15.18;;;;;;;1.52;80.93;98671.00;4953844;28;20314;-78
2021/01/26 02:21:31;;;;;;;24.83;15.30;;;;;;;1.46;80.94;98672.09;4942207;28;20235;-77
2021/01/26 02:24:31;;;;;;;25.80;14.00;;;;;;;1.50;80.44;98670.19;4980916;28;20236;-77
2021/01/26 02:27:11;;;;;;;30.17;14.63;;;;;;;1.37;81.14;98675.06;4932481;28;20238;-79
2021/01/26 02:30:04;;;;;;;24.48;14.25;;;;;;;1.53;80.67;98678.91;4942398;28;20222;-78
2021/01/26 02:32:46;;;;;;;25.33;15.50;;;;;;;1.64;80.53;98684.66;4940031;29;20199;-78
2021/01/26 02:35:34;;;;;;;25.88;14.77;;;;;;;1.65;80.06;98686.41;4958894;29;20302;-80
2021/01/26 02:38:33;;;;;;;24.67;13.50;;;;;;;1.58;80.46;98695.50;4940215;28;20236;-78
2021/01/26 02:41:03;;;;;;;26.00;14.60;;;;;;;1.66;80.35;98693.41;4971583;28;20235;-77
2021/01/26 02:43:48;;;;;;;21.70;13.93;;;;;;;1.63;80.76;98698.84;4935812;29;20229;-79
2021/01/26 02:46:14;;;;;;;23.75;12.75;;;;;;;1.67;79.95;98697.78;4938475;28;20239;-78
2021/01/26 02:49:11;;;;;;;23.80;13.95;;;;;;;1.71;79.98;98707.38;4939777;28;20286;-78
2021/01/26 02:51:58;;;;;;;25.02;14.43;;;;;;;1.67;79.92;98711.03;4964189;28;20314;-77
2021/01/26 02:54:51;;;;;;;22.75;12.73;;;;;;;1.67;79.54;98721.63;4963237;28;20219;-78
2021/01/26 02:57:25;;;;;;;28.48;13.32;;;;;;;1.76;79.76;98715.13;4950133;28;20249;-78
2021/01/26 02:59:58;;;;;;;23.38;11.30;;;;;;;1.77;79.69;98707.16;4948110;28;20237;-77
2021/01/26 03:02:34;;;;;;;20.38;12.60;;;;;;;1.72;79.80;98701.16;4963975;28;20188;-77
2021/01/26 03:05:08;;;;;;;25.17;13.00;;;;;;;1.69;80.73;98698.59;4970625;28;20686;-77
2021/01/26 03:07:42;;;;;;;21.15;12.93;;;;;;;1.67;80.56;98689.84;4978419;28;20227;-76
2021/01/26 03:10:16;;;;;;;20.77;13.18;;;;;;;1.75;80.75;98698.38;4953268;28;20219;-76
2021/01/26 03:12:50;;;;;;;23.48;12.43;;;;;;;1.83;80.43;98709.56;4941545;29;20235;-78
2021/01/26 03:15:29;;;;;;;22.92;10.85;;;;;;;1.79;80.05;98715.88;4939362;28;20239;-77
2021/01/26 03:18:20;;;;;;;21.83;12.55;;;;;;;1.75;80.02;98703.66;4958483;28;20233;-78
2021/01/26 03:20:52;;;;;;;23.63;12.05;;;;;;;1.80;80.22;98709.66;4975574;28;20222;-77
2021/01/26 03:23:42;;;;;;;23.02;12.90;;;;;;;1.86;79.59;98720.03;4966107;28;20202;-77
2021/01/26 03:26:15;;;;;;;23.95;13.30;;;;;;;1.87;79.66;98703.19;4940847;29;20283;-78
2021/01/26 03:28:44;;;;;;;18.70;11.25;;;;;;;1.82;79.39;98713.13;4972162;28;20303;-78
2021/01/26 03:31:16;;;;;;;21.50;12.50;;;;;;;1.83;79.65;98716.63;4941758;29;20327;-78
2021/01/26 03:33:49;;;;;;;20.63;12.50;;;;;;;1.83;79.36;98722.81;4973087;28;20242;-78
2021/01/26 03:36:15;;;;;;;19.73;11.93;;;;;;;1.97;79.46;98719.63;4964992;28;20231;-76
2021/01/26 03:38:42;;;;;;;20.90;12.32;;;;;;;2.00;79.93;98730.13;4962789;28;20266;-77
2021/01/26 03:41:08;;;;;;;18.48;11.85;;;;;;;1.89;79.77;98729.66;4943753;28;20199;-78
2021/01/26 03:43:34;;;;;;;20.15;13.05;;;;;;;1.83;79.93;98727.25;4957740;28;20228;-78
2021/01/26 03:46:24;;;;;;;17.83;10.95;;;;;;;1.83;80.07;98730.78;4939221;28;20223;-77
2021/01/26 03:49:11;;;;;;;21.63;11.35;;;;;;;1.90;79.83;98726.97;4956384;28;20231;-79
2021/01/26 03:51:51;;;;;;;19.05;11.77;;;;;;;1.98;79.63;98722.22;4968628;28;20223;-77
2021/01/26 03:54:33;;;;;;;18.05;11.60;;;;;;;1.99;79.49;98725.75;4965921;28;20231;-79
2021/01/26 03:57:18;;;;;;;23.38;12.70;;;;;;;1.94;79.05;98725.06;4922982;29;20258;-77
2021/01/26 04:00:02;;;;;;;17.40;8.40;;;;;;;1.83;79.24;98730.78;4917078;28;20244;-77
2021/01/26 04:02:51;;;;;;;18.50;10.27;;;;;;;1.85;79.66;98725.38;4935017;29;20275;-76
2021/01/26 04:05:40;;;;;;;17.55;9.85;;;;;;;1.88;80.08;98731.44;4921399;29;20217;-77
2021/01/26 04:08:15;;;;;;;20.20;11.02;;;;;;;1.91;79.27;98739.28;4955664;28;20270;-79
2021/01/26 04:11:14;;;;;;;17.70;10.00;;;;;;;2.00;78.98;98741.59;4955391;28;20238;-78
2021/01/26 04:14:05;;;;;;;19.90;11.15;;;;;;;2.04;78.76;98744.97;4939112;28;20226;-78
2021/01/26 04:16:38;;;;;;;18.48;9.50;;;;;;;1.96;79.34;98740.00;4955195;28;20716;-77
2021/01/26 04:19:07;;;;;;;17.77;10.60;;;;;;;1.98;78.97;98745.22;4970181;28;20215;-78
2021/01/26 04:21:35;;;;;;;18.48;10.02;;;;;;;1.96;79.51;98747.06;4936367;28;20216;-77
2021/01/26 04:24:01;;;;;;;13.32;8.55;;;;;;;1.96;79.16;98745.28;4927951;28;20243;-78
2021/01/26 04:26:32;;;;;;;20.13;9.95;;;;;;;2.01;79.32;98743.31;4956252;28;20210;-78
2021/01/26 04:28:58;;;;;;;14.95;9.68;;;;;;;1.97;79.31;98747.03;4935327;29;20700;-77
2021/01/26 04:31:26;;;;;;;18.00;10.77;;;;;;;2.03;79.27;98738.84;4966082;28;20232;-78
2021/01/26 04:33:52;;;;;;;16.55;9.40;;;;;;;1.99;79.29;98739.84;4943490;28;20302;-78
2021/01/26 04:36:21;;;;;;;17.00;9.27;;;;;;;2.00;79.01;98744.25;4958840;28;20774;-78
2021/01/26 04:38:48;;;;;;;12.07;8.20;;;;;;;2.06;78.68;98751.13;4963255;28;20230;-77
2021/01/26 04:41:26;;;;;;;13.07;7.70;;;;;;;2.05;78.32;98746.75;4965106;28;20217;-78
2021/01/26 04:44:06;;;;;;;20.45;11.68;;;;;;;2.17;78.67;98749.78;4994975;28;20235;-78
2021/01/26 04:46:44;;;;;;;16.83;9.07;;;;;;;2.13;78.51;98745.50;4961651;28;20223;-77
2021/01/26 04:49:19;;;;;;;15.93;9.05;;;;;;;2.20;78.86;98759.41;4965807;28;20223;-77
2021/01/26 04:52:05;;;;;;;13.10;8.02;;;;;;;2.13;78.39;98757.91;4953907;28;20222;-77
2021/01/26 04:54:55;;;;;;;15.63;8.52;;;;;;;2.22;78.65;98762.84;4957163;28;20231;-77
2021/01/26 04:57:37;;;;;;;15.50;8.25;;;;;;;2.17;78.62;98754.19;4945952;29;20733;-77
2021/01/26 05:00:28;;;;;;;15.40;8.27;;;;;;;2.12;78.55;98757.03;4942791;28;20223;-78
2021/01/26 05:03:32;;;;;;;12.27;8.23;;;;;;;2.20;78.75;98754.09;4960108;28;20234;-78
2021/01/26 05:06:06;;;;;;;13.02;7.82;;;;;;;2.14;78.22;98744.59;4950548;29;20297;-78
2021/01/26 05:08:37;;;;;;;13.43;8.27;;;;;;;2.22;78.56;98747.81;4950493;29;20200;-79
2021/01/26 05:11:25;;;;;;;9.23;6.38;;;;;;;2.18;78.49;98746.19;4953486;28;20607;-76
2021/01/26 05:13:59;;;;;;;12.82;8.40;;;;;;;2.24;78.60;98759.22;4979543;28;20223;-77
2021/01/26 05:16:53;;;;;;;10.05;7.47;;;;;;;2.28;78.01;98747.59;4980936;28;20288;-78
2021/01/26 05:19:37;;;;;;;11.57;7.63;;;;;;;2.30;77.97;98759.00;4980520;28;20238;-76
2021/01/26 05:22:18;;;;;;;15.25;8.93;;;;;;;2.37;77.67;98757.81;4988548;28;20220;-78
2021/01/26 05:25:10;;;;;;;14.38;7.95;;;;;;;2.42;77.32;98757.63;4947469;28;20275;-78
2021/01/26 05:27:37;;;;;;;13.00;7.20;;;;;;;2.30;78.05;98758.09;4970866;28;20717;-77
2021/01/26 05:30:06;;;;;;;10.45;7.50;;;;;;;2.29;78.12;98765.22;4960246;28;20238;-78
2021/01/26 05:32:33;;;;;;;11.98;7.00;;;;;;;2.25;78.07;98768.06;4961921;28;20229;-78
2021/01/26 05:34:59;;;;;;;13.05;8.13;;;;;;;2.35;77.49;98769.41;4949230;28;20233;-77
2021/01/26 05:37:26;;;;;;;11.57;7.72;;;;;;;2.30;77.23;98782.88;4945943;28;20242;-76
2021/01/26 05:39:54;;;;;;;13.07;6.50;;;;;;;2.36;77.45;98793.25;4958574;28;20224;-79
2021/01/26 05:42:22;;;;;;;11.73;7.75;;;;;;;2.42;77.54;98790.34;4939823;29;20236;-77
2021/01/26 05:44:52;;;;;;;11.38;7.65;;;;;;;2.40;76.88;98791.34;4958504;28;20232;-78
2021/01/26 05:47:33;;;;;;;8.50;6.53;;;;;;;2.48;76.88;98792.78;4960532;28;20189;-77
2021/01/26 05:50:00;;;;;;;13.23;7.60;;;;;;;2.51;76.47;98797.94;4962855;28;20390;-78
2021/01/26 05:52:40;;;;;;;12.40;7.18;;;;;;;2.44;76.56;98807.06;4942404;28;20232;-79
2021/01/26 05:55:20;;;;;;;11.65;6.80;;;;;;;2.51;76.27;98808.56;4934376;28;20281;-78
2021/01/26 05:57:49;;;;;;;8.52;6.80;;;;;;;2.52;76.01;98815.59;4956145;29;20232;-77
2021/01/26 06:00:18;;;;;;;11.90;6.40;;;;;;;2.49;75.89;98815.72;4955934;28;20220;-77
2021/01/26 06:02:45;;;;;;;11.50;6.43;;;;;;;2.49;75.73;98821.03;4933649;29;20729;-77
2021/01/26 06:05:22;;;;;;;10.25;6.75;;;;;;;2.49;75.53;98815.72;4957158;29;20224;-77
2021/01/26 06:08:08;;;;;;;9.45;6.97;;;;;;;2.54;75.74;98816.41;4925214;29;20219;-77
2021/01/26 06:10:35;;;;;;;8.60;6.35;;;;;;;2.48;75.85;98823.72;4942235;29;20251;-78
2021/01/26 06:13:03;;;;;;;8.77;5.45;;;;;;;2.52;75.35;98831.50;4945815;28;20802;-77
2021/01/26 06:15:33;;;;;;;16.83;6.95;;;;;;;2.49;75.80;98829.00;4966956;28;20224;-77
2021/01/26 06:18:18;;;;;;;9.43;7.20;;;;;;;2.56;75.90;98833.13;4957597;28;20725;-79
2021/01/26 06:21:03;;;;;;;12.32;6.88;;;;;;;2.62;75.50;98827.59;4953902;28;20236;-78
2021/01/26 06:23:30;;;;;;;6.32;5.43;;;;;;;2.58;75.32;98836.59;4924268;28;20204;-76
2021/01/26 06:26:08;;;;;;;10.90;5.30;;;;;;;2.58;75.17;98830.44;4952815;28;20221;-77
2021/01/26 06:28:40;;;;;;;7.78;6.00;;;;;;;2.59;75.04;98838.34;4954390;28;20222;-77
2021/01/26 06:31:18;;;;;;;8.25;6.65;;;;;;;2.65;75.15;98838.06;4934550;28;20259;-78
2021/01/26 06:34:00;;;;;;;7.07;5.78;;;;;;;2.71;74.53;98843.16;4947861;28;20822;-77
2021/01/26 06:37:00;;;;;;;9.68;5.82;;;;;;;2.66;74.21;98846.91;4941259;28;20242;-80
2021/01/26 06:39:46;;;;;;;9.85;5.38;;;;;;;2.65;74.42;98854.00;4958191;28;20219;-76
2021/01/26 06:42:26;;;;;;;11.68;5.60;;;;;;;2.59;74.81;98848.97;4941180;28;20226;-79
2021/01/26 06:45:17;;;;;;;7.05;6.28;;;;;;;2.63;75.10;98853.19;4954507;28;20236;-78
2021/01/26 06:48:23;;;;;;;8.48;6.40;;;;;;;2.59;75.44;98859.56;4969826;28;20254;-77
2021/01/26 06:51:10;;;;;;;10.68;5.45;;;;;;;2.54;75.33;98858.88;4970699;28;20258;-78
2021/01/26 06:53:50;;;;;;;6.38;4.57;;;;;;;2.43;75.33;98855.75;4956401;28;20750;-77
2021/01/26 06:56:38;;;;;;;6.68;4.75;;;;;;;2.43;75.60;98861.06;4974267;28;20658;-75
2021/01/26 06:59:20;;;;;;;5.65;3.95;;;;;;;2.43;76.03;98869.03;4956343;29;20231;-77
2021/01/26 07:02:06;;;;;;;7.95;4.13;;;;;;;2.37;75.58;98871.06;4968657;28;20240;-77
2021/01/26 07:05:12;;;;;;;7.18;5.15;;;;;;;2.43;75.47;98878.75;4965475;28;20288;-78
2021/01/26 07:07:53;;;;;;;8.25;5.10;;;;;;;2.45;75.45;98887.53;4941233;28;20229;-78
2021/01/26 07:10:30;;;;;;;7.03;4.95;;;;;;;2.43;75.71;98884.94;4937857;29;20252;-78
2021/01/26 07:13:08;;;;;;;17.27;6.00;;;;;;;2.50;75.44;98894.41;4940380;28;20230;-78
2021/01/26 07:16:01;;;;;;;4.47;4.07;;;;;;;2.37;75.12;98884.31;4930548;29;20243;-78
2021/01/26 07:18:38;;;;;;;11.07;6.43;;;;;;;2.43;75.13;98898.22;4950568;28;20240;-79
2021/01/26 07:21:19;;;;;;;12.48;6.38;;;;;;;2.45;74.87;98899.00;4939055;28;20235;-77
2021/01/26 07:24:05;;;;;;;4.63;4.15;;;;;;;2.45;74.53;98898.16;4944397;28;20690;-78
2021/01/26 07:26:52;;;;;;;8.90;4.70;;;;;;;2.42;74.94;98893.81;4946650;28;20282;-78
2021/01/26 07:29:43;;;;;;;5.20;3.75;;;;;;;2.40;74.82;98905.41;4941659;28;20219;-77
2021/01/26 07:32:21;;;;;;;9.05;5.22;;;;;;;2.45;74.92;98892.84;4963083;28;20228;-78
2021/01/26 07:35:17;;;;;;;6.32;5.05;;;;;;;2.36;74.91;98894.06;4963852;28;20230;-78
2021/01/26 07:37:55;;;;;;;10.27;5.13;;;;;;;2.31;75.24;98889.84;4937846;29;20234;-78
2021/01/26 07:40:28;;;;;;;7.43;5.63;;;;;;;2.33;75.20;98904.75;4947053;29;20238;-78
2021/01/26 07:43:04;;;;;;;10.90;5.00;;;;;;;2.33;75.14;98888.84;4925150;28;20236;-78
2021/01/26 07:45:36;;;;;;;5.70;4.97;;;;;;;2.40;74.75;98910.72;4927454;29;20207;-77
2021/01/26 07:48:08;;;;;;;8.57;4.80;;;;;;;2.39;74.97;98915.16;4954215;28;20239;-79
2021/01/26 07:50:38;;;;;;;10.82;6.25;;;;;;;2.42;75.55;98914.16;4936989;28;20215;-78
2021/01/26 07:53:20;;;;;;;8.70;5.15;;;;;;;2.29;75.16;98919.06;4921820;29;20196;-77
2021/01/26 07:55:57;;;;;;;8.23;5.13;;;;;;;2.38;74.99;98923.19;4973218;28;20245;-78
2021/01/26 07:58:23;;;;;;;8.63;4.95;;;;;;;2.46;74.65;98929.06;4954967;28;20219;-78
2021/01/26 08:00:55;;;;;;;5.65;4.80;;;;;;;2.44;74.40;98918.50;4937385;28;20231;-78
2021/01/26 08:04:13;;;;;;;8.32;5.18;;;;;;;2.37;74.64;98938.22;4951443;29;20231;-78
2021/01/26 08:06:45;;;;;;;8.35;5.65;;;;;;;2.43;74.43;98940.66;4942023;28;20235;-77
2021/01/26 08:09:18;;;;;;;9.60;6.03;;;;;;;2.49;74.39;98943.09;4934314;28;20236;-77
2021/01/26 08:12:08;;;;;;;10.57;5.88;;;;;;;2.61;74.16;98928.50;4941815;28;20219;-79
2021/01/26 08:14:38;;;;;;;6.07;4.50;;;;;;;2.54;73.96;98933.19;4928984;28;20227;-78
2021/01/26 08:17:09;;;;;;;7.50;5.30;;;;;;;2.64;73.76;98950.47;4964207;28;20207;-77
2021/01/26 08:19:41;;;;;;;7.20;5.18;;;;;;;2.58;73.42;98941.91;4983802;28;20219;-76
2021/01/26 08:22:17;;;;;;;4.35;3.58;;;;;;;2.49;73.48;98943.09;4970233;28;20222;-77
2021/01/26 08:24:45;;;;;;;7.60;5.18;;;;;;;2.50;73.62;98951.94;4975851;28;20483;-79
2021/01/26 08:27:33;;;;;;;9.18;5.95;;;;;;;2.66;73.61;98953.97;4950187;29;20240;-79
2021/01/26 08:30:01;;;;;;;8.18;5.20;;;;;;;2.58;73.21;98957.81;4912083;29;20243;-79
2021/01/26 08:32:27;;;;;;;6.95;4.35;;;;;;;2.57;72.95;98956.94;4937334;29;20184;-78
2021/01/26 08:35:06;;;;;;;7.20;6.18;;;;;;;2.67;73.43;98953.03;4930136;28;20239;-78
2021/01/26 08:37:43;;;;;;;7.00;4.50;;;;;;;2.57;73.28;98964.06;4963254;28;20728;-79
2021/01/26 08:40:17;;;;;;;5.13;3.22;;;;;;;2.48;73.31;98951.97;4940807;28;20659;-79
2021/01/26 08:42:44;;;;;;;6.40;4.93;;;;;;;2.53;73.21;98960.66;4940091;28;20234;-78
2021/01/26 08:45:16;;;;;;;9.43;6.70;;;;;;;2.66;73.41;98969.00;4955759;28;20653;-77
2021/01/26 08:47:44;;;;;;;11.73;5.43;;;;;;;2.74;72.78;98972.25;4942172;28;20242;-77
2021/01/26 08:50:39;;;;;;;7.97;5.70;;;;;;;2.81;72.42;98974.63;4938464;29;20227;-77
2021/01/26 08:53:20;;;;;;;6.70;4.90;;;;;;;2.77;72.24;98973.00;4921606;29;20231;-78
2021/01/26 08:55:52;;;;;;;18.17;5.70;;;;;;;2.83;72.78;98980.72;4956959;28;20860;-79
2021/01/26 08:58:40;;;;;;;4.18;3.17;;;;;;;2.72;72.57;98974.97;4971712;28;20231;-79
2021/01/26 09:01:09;;;;;;;12.50;5.63;;;;;;;2.91;72.41;98999.03;4940268;28;20760;-78
2021/01/26 09:03:39;;;;;;;10.10;4.75;;;;;;;2.86;71.71;99001.00;4937182;28;20232;-79
2021/01/26 09:06:10;;;;;;;10.13;5.20;;;;;;;2.87;72.41;98995.63;4923643;29;20722;-79
2021/01/26 09:08:42;;;;;;;5.22;4.38;;;;;;;2.82;72.11;98994.94;4918874;28;20211;-79
2021/01/26 09:11:20;;;;;;;7.43;5.22;;;;;;;2.73;72.64;98995.28;4923236;29;20217;-77
2021/01/26 09:13:49;;;;;;;9.05;5.25;;;;;;;2.87;72.00;99003.59;4950850;29;20230;-79
2021/01/26 09:16:23;;;;;;;9.27;4.45;;;;;;;2.77;72.05;99007.50;4937194;28;20263;-78
2021/01/26 09:18:59;;;;;;;5.13;3.95;;;;;;;2.75;72.40;99011.13;4945171;28;20234;-78
2021/01/26 09:21:30;;;;;;;6.60;4.22;;;;;;;2.62;72.38;99018.69;4939907;28;20266;-79
2021/01/26 09:23:57;;;;;;;7.82;5.20;;;;;;;2.58;72.85;99011.75;4980286;28;20215;-78
2021/01/26 09:26:26;;;;;;;6.00;5.35;;;;;;;2.68;72.96;99017.59;4976296;28;20196;-78
2021/01/26 09:28:52;;;;;;;6.03;3.83;;;;;;;2.70;72.45;99021.06;4993804;28;20200;-78
2021/01/26 09:31:25;;;;;;;5.13;3.67;;;;;;;2.53;72.85;99023.47;4980230;28;20295;-78
2021/01/26 09:34:04;;;;;;;8.73;5.55;;;;;;;2.56;73.00;99018.06;4962393;28;20223;-78
2021/01/26 09:36:30;;;;;;;7.28;4.90;;;;;;;2.57;73.02;99031.25;4971815;28;20230;-78
2021/01/26 09:39:08;;;;;;;6.15;5.03;;;;;;;2.61;72.98;99037.31;4963282;28;20214;-78
2021/01/26 09:41:36;;;;;;;7.45;5.45;;;;;;;2.68;72.64;99038.81;4976939;28;20186;-81
2021/01/26 09:44:12;;;;;;;14.82;5.15;;;;;;;2.64;72.70;99046.03;4974673;28;20274;-78
2021/01/26 09:46:45;;;;;;;9.02;4.65;;;;;;;2.58;72.30;99043.59;4974301;28;20215;-78
2021/01/26 09:49:17;;;;;;;6.13;5.05;;;;;;;2.55;72.66;99038.41;4961322;28;20242;-79
2021/01/26 09:52:14;;;;;;;5.70;4.75;;;;;;;2.49;72.30;99043.94;4943523;28;20227;-80
2021/01/26 09:54:42;;;;;;;5.32;4.75;;;;;;;2.62;72.29;99047.88;4942049;28;20227;-77
2021/01/26 09:57:14;;;;;;;7.47;4.72;;;;;;;2.73;71.66;99047.50;4941675;28;20231;-78
2021/01/26 09:59:44;;;;;;;6.18;4.65;;;;;;;2.72;71.53;99046.66;4989470;28;20366;-77
2021/01/26 10:02:16;;;;;;;9.45;5.78;;;;;;;2.93;71.28;99043.22;4950750;28;20203;-79
2021/01/26 10:05:11;;;;;;;8.88;4.72;;;;;;;2.94;70.35;99036.09;4933992;28;20234;-78
2021/01/26 10:07:37;;;;;;;8.52;4.53;;;;;;;2.99;69.87;99044.75;4942092;28;20710;-77
2021/01/26 10:10:21;;;;;;;5.47;3.83;;;;;;;2.90;69.45;99051.28;4957942;28;20300;-78
2021/01/26 10:12:47;;;;;;;3.75;3.35;;;;;;;2.96;69.45;99047.56;4980170;28;20234;-78
2021/01/26 10:15:30;;;;;;;7.00;4.50;;;;;;;3.11;69.37;99050.50;4968886;23;20238;-90
2021/01/26 10:18:15;;;;;;;6.07;4.03;;;;;;;3.01;69.31;99059.72;4939719;29;20267;-92
2021/01/26 10:21:03;;;;;;;5.55;4.13;;;;;;;2.90;69.97;99061.03;4912759;28;20225;-87
2021/01/26 10:23:30;;;;;;;7.80;4.43;;;;;;;3.24;69.43;99051.78;4968002;23;20682;-85
2021/01/26 10:26:22;;;;;;;5.95;5.07;;;;;;;3.34;68.36;99062.94;4962311;28;20643;-86
2021/01/26 10:29:06;;;;;;;5.47;4.20;;;;;;;3.35;68.24;99065.50;4942160;28;20235;-90
2021/01/26 10:31:55;;;;;;;4.80;4.30;;;;;;;3.31;68.04;99077.19;4942561;28;20231;-89
2021/01/26 10:34:34;;;;;;;9.07;4.32;;;;;;;3.33;68.15;99071.84;4942196;28;20568;-90
2021/01/26 10:37:23;;;;;;;5.18;3.78;;;;;;;3.14;68.21;99079.59;4945405;28;20231;-90
2021/01/26 10:40:16;;;;;;;3.55;3.15;;;;;;;3.18;68.17;99083.00;4949237;28;20260;-91
2021/01/26 10:43:11;;;;;;;4.70;4.30;;;;;;;3.38;68.43;99091.97;5107218;23;20256;-89
2021/01/26 10:46:58;;;;;;;3.70;3.40;;;;;;;3.39;68.07;99096.38;4791467;29;20628;-90
2021/01/26 10:50:27;;;;;;;4.70;4.20;;;;;;;3.26;68.58;99096.88;4786862;30;20300;-90
2021/01/26 10:57:10;;;;;;;7.50;4.13;;;;;;;3.30;68.47;99102.03;4795592;29;20213;-92
2021/01/26 11:00:25;;;;;;;6.78;4.30;;;;;;;3.29;68.37;99113.56;4725935;29;20230;-91
2021/01/26 11:10:16;;;;;;;8.18;5.03;;;;;;;3.16;69.38;99101.66;4987023;23;20248;-90
2021/01/26 11:12:50;;;;;;;6.20;4.55;;;;;;;3.03;69.21;99118.97;4906773;28;20232;-90
2021/01/26 11:19:43;;;;;;;7.95;5.15;;;;;;;3.14;69.18;99108.81;4898481;29;20291;-89
2021/01/26 11:27:25;;;;;;;9.63;4.75;;;;;;;3.28;68.38;99114.50;4802911;29;20228;-89
2021/01/26 11:38:34;;;;;;;5.40;4.15;;;;;;;3.30;68.16;99109.13;4701871;29;20236;-92
2021/01/26 11:41:38;;;;;;;4.80;4.00;;;;;;;3.24;67.41;99115.56;4517185;27;18551001;-92
2021/01/26 11:45:28;;;;;;;10.80;5.32;;;;;;;3.24;67.67;99115.56;5143982;27;20540;-92
2021/01/26 11:48:43;;;;;;;5.20;4.00;;;;;;;3.07;68.19;99128.56;4970371;28;20239;-89
2021/01/26 11:52:06;;;;;;;;;;;;;;;;;;;;;
2021/01/26 11:58:54;;;;;;;6.20;3.90;;;;;;;3.21;68.04;99125.41;5458041;22;20227;-88
2021/01/26 12:02:07;;;;;;;5.88;4.75;;;;;;;3.24;67.74;99115.56;4954593;28;20219;-88
2021/01/26 12:04:55;;;;;;;7.40;4.45;;;;;;;3.36;67.48;99115.09;4977218;28;20218;-88
2021/01/26 12:07:32;;;;;;;6.60;5.95;;;;;;;3.69;66.24;99096.97;4917656;28;20219;-89
2021/01/26 12:30:13;;;;;;;6.88;4.90;;;;;;;3.72;64.17;99099.53;4831621;29;20244;-88
2021/01/26 12:33:28;;;;;;;8.77;5.90;;;;;;;3.93;63.92;99104.88;4842466;29;20707;-88
2021/01/26 12:36:07;;;;;;;6.60;5.28;;;;;;;3.82;63.63;99099.13;4875187;28;20246;-89
2021/01/26 12:39:13;;;;;;;10.55;5.57;;;;;;;3.72;63.78;99100.38;4852745;29;20227;-89
2021/01/26 12:41:41;;;;;;;10.55;6.40;;;;;;;3.72;63.89;99097.72;4889308;28;21189;-91
2021/01/26 12:44:57;;;;;;;7.22;5.03;;;;;;;3.78;63.88;99092.19;4911091;29;20220;-89
2021/01/26 12:48:58;;;;;;;;;;;;;;;;;;;;;
2021/01/26 12:57:06;;;;;;;5.90;4.47;;;;;;;3.70;63.37;99101.38;4886996;29;20237;-90
2021/01/26 13:00:18;;;;;;;8.60;5.70;;;;;;;3.82;63.65;99098.25;4926858;28;20199;-89
2021/01/26 13:06:34;;;;;;;8.40;6.45;;;;;;;4.27;62.86;99099.06;4909410;28;20778;-89
2021/01/26 13:09:15;;;;;;;8.45;5.75;;;;;;;3.89;62.98;99108.59;4962139;28;20290;-90
2021/01/26 13:12:37;;;;;;;5.93;4.80;;;;;;;3.82;63.52;99107.09;4949476;28;20217;-90
2021/01/26 13:15:25;;;;;;;7.43;4.53;;;;;;;3.73;62.67;99103.94;4955740;28;20275;-88
2021/01/26 13:18:16;;;;;;;11.70;5.63;;;;;;;3.96;63.02;99102.09;4905340;28;20224;-88
2021/01/26 13:20:45;;;;;;;12.00;6.03;;;;;;;3.93;62.84;99106.66;4947616;28;20258;-80
2021/01/26 13:23:12;;;;;;;7.72;5.82;;;;;;;4.02;63.65;99104.50;4992754;28;20243;-82
2021/01/26 13:25:39;;;;;;;19.85;11.07;;;;;;;3.89;64.05;99115.69;4977739;28;20229;-82
2021/01/26 13:28:05;;;;;;;9.30;7.10;;;;;;;4.13;63.27;99115.59;4973506;28;20228;-81
2021/01/26 13:30:31;;;;;;;11.68;6.32;;;;;;;3.99;63.51;99117.91;4976517;28;20229;-81
2021/01/26 13:32:59;;;;;;;9.27;6.45;;;;;;;4.02;63.60;99112.50;4976475;28;20226;-81